createdAt,value
2023-04-27T00:02:17.666Z,99934.44
2023-04-27T00:04:46.119Z,99929.22
2023-04-27T00:07:14.781Z,99935.28
2023-04-27T00:09:43.258Z,99933.59
2023-04-27T00:12:13.655Z,99931.63
2023-04-27T00:14:42.107Z,99939.41
2023-04-27T00:17:10.118Z,99931.44
2023-04-27T00:19:40.241Z,99929.34
2023-04-27T00:22:09.155Z,99929.25
2023-04-27T00:24:37.427Z,99922.44
2023-04-27T00:27:06.180Z,99917.03
2023-04-27T00:29:34.941Z,99917.34
2023-04-27T00:32:03.277Z,99927.84
2023-04-27T00:34:31.426Z,99904.69
2023-04-27T00:37:00.965Z,99914.19
2023-04-27T00:39:29.204Z,99901.25
2023-04-27T00:41:57.427Z,99895.56
2023-04-27T00:44:27.244Z,99896.22
2023-04-27T00:46:56.294Z,99910.03
2023-04-27T00:49:24.790Z,99910.63
2023-04-27T00:51:52.596Z,99900.28
2023-04-27T00:54:23.920Z,99899.88
2023-04-27T00:56:52.829Z,99901.56
2023-04-27T00:59:22.210Z,99909.81
2023-04-27T01:01:50.701Z,99907.00
2023-04-27T01:04:19.064Z,99901.06
2023-04-27T01:06:47.213Z,99902.59
2023-04-27T01:09:16.838Z,99902.88
2023-04-27T01:11:44.903Z,99893.97
2023-04-27T01:14:13.212Z,99886.00
2023-04-27T01:16:41.336Z,99883.47
2023-04-27T01:19:09.868Z,99882.78
2023-04-27T01:21:38.293Z,99887.06
2023-04-27T01:24:07.782Z,99886.22
2023-04-27T01:26:36.200Z,99886.31
2023-04-27T01:29:04.525Z,99883.34
2023-04-27T01:31:33.196Z,99878.41
2023-04-27T01:34:04.191Z,99863.06
2023-04-27T01:36:32.751Z,99867.16
2023-04-27T01:39:00.878Z,99855.81
2023-04-27T01:41:51.454Z,99852.78
2023-04-27T01:44:21.430Z,99853.34
2023-04-27T01:46:49.565Z,99854.91
2023-04-27T01:49:17.756Z,99842.09
2023-04-27T01:51:45.799Z,99818.66
2023-04-27T01:54:14.004Z,99817.25
2023-04-27T01:56:42.443Z,99866.09
2023-04-27T01:59:10.334Z,99860.00
2023-04-27T02:01:38.832Z,99847.22
2023-04-27T02:04:07.316Z,99873.50
2023-04-27T02:06:36.800Z,99894.25
2023-04-27T02:09:05.110Z,99873.09
2023-04-27T02:11:33.532Z,99868.69
2023-04-27T02:14:01.914Z,99880.91
2023-04-27T02:16:30.418Z,99866.28
2023-04-27T02:18:59.419Z,99862.28
2023-04-27T02:21:28.712Z,99858.13
2023-04-27T02:23:56.748Z,99862.38
2023-04-27T02:26:31.352Z,99872.78
2023-04-27T02:29:00.007Z,99863.38
2023-04-27T02:31:28.599Z,99842.47
2023-04-27T02:33:56.951Z,99856.69
2023-04-27T02:36:25.365Z,99859.06
2023-04-27T02:38:53.449Z,99847.72
2023-04-27T02:41:21.541Z,99845.56
2023-04-27T02:43:51.767Z,99862.47
2023-04-27T02:46:19.933Z,99874.03
2023-04-27T02:48:47.838Z,99866.50
2023-04-27T02:51:16.171Z,99869.50
2023-04-27T02:53:44.165Z,99860.81
2023-04-27T02:56:12.261Z,99859.97
2023-04-27T02:58:40.888Z,99861.16
2023-04-27T03:01:10.021Z,99875.06
2023-04-27T03:03:38.359Z,99864.09
2023-04-27T03:06:07.050Z,99849.75
2023-04-27T03:08:36.224Z,99863.97
2023-04-27T03:11:29.497Z,99852.16
2023-04-27T03:13:57.743Z,99852.25
2023-04-27T03:16:26.245Z,99847.41
2023-04-27T03:18:54.443Z,99838.19
2023-04-27T03:21:22.625Z,99833.47
2023-04-27T03:23:51.037Z,99821.53
2023-04-27T03:26:19.202Z,99833.13
2023-04-27T03:28:48.608Z,99819.25
2023-04-27T03:31:17.646Z,99847.09
2023-04-27T03:33:46.040Z,99842.03
2023-04-27T03:36:14.446Z,99864.50
2023-04-27T03:38:42.861Z,99860.69
2023-04-27T03:41:11.112Z,99840.13
2023-04-27T03:43:39.187Z,99841.88
2023-04-27T03:46:07.394Z,99834.34
2023-04-27T03:48:35.409Z,99833.94
2023-04-27T03:51:03.833Z,99844.31
2023-04-27T03:53:32.189Z,99866.50
2023-04-27T03:56:02.700Z,99858.00
2023-04-27T03:58:31.228Z,99859.25
2023-04-27T04:00:59.760Z,99868.03
2023-04-27T04:03:28.240Z,99876.97
2023-04-27T04:05:56.726Z,99857.13
2023-04-27T04:08:24.971Z,99857.69
2023-04-27T04:10:52.791Z,99843.75
2023-04-27T04:13:21.319Z,99861.50
2023-04-27T04:15:49.429Z,99849.69
2023-04-27T04:18:17.585Z,99836.72
2023-04-27T04:20:45.535Z,99846.91
2023-04-27T04:23:14.944Z,99854.38
2023-04-27T04:25:43.661Z,99875.78
2023-04-27T04:28:11.921Z,99872.41
2023-04-27T04:30:40.830Z,99858.72
2023-04-27T04:33:09.233Z,99850.91
2023-04-27T04:35:41.814Z,99865.16
2023-04-27T04:38:11.487Z,99856.81
2023-04-27T04:40:39.746Z,99857.56
2023-04-27T04:43:08.214Z,99859.28
2023-04-27T04:45:37.361Z,99859.19
2023-04-27T04:48:06.430Z,99857.16
2023-04-27T04:50:34.556Z,99855.75
2023-04-27T04:53:02.871Z,99853.81
2023-04-27T04:55:30.764Z,99845.88
2023-04-27T04:57:58.967Z,99843.47
2023-04-27T05:00:30.127Z,99846.31
2023-04-27T05:02:58.874Z,99838.16
2023-04-27T05:05:27.181Z,99821.91
2023-04-27T05:07:55.670Z,99818.81
2023-04-27T05:10:23.985Z,99819.28
2023-04-27T05:12:52.220Z,99825.53
2023-04-27T05:15:20.198Z,99824.03
2023-04-27T05:17:48.241Z,99824.72
2023-04-27T05:20:16.337Z,99823.97
2023-04-27T05:22:44.487Z,99819.69
2023-04-27T05:25:12.851Z,99822.28
2023-04-27T05:27:41.615Z,99835.53
2023-04-27T05:30:11.771Z,99824.97
2023-04-27T05:32:40.674Z,99806.97
2023-04-27T05:35:08.880Z,99817.03
2023-04-27T05:37:37.570Z,99814.69
2023-04-27T05:40:09.985Z,99821.63
2023-04-27T05:42:38.671Z,99804.16
2023-04-27T05:45:07.394Z,99802.63
2023-04-27T05:47:36.050Z,99802.47
2023-04-27T05:50:05.625Z,99802.81
2023-04-27T05:52:36.348Z,99791.34
2023-04-27T05:55:13.607Z,99783.84
2023-04-27T05:57:41.673Z,99784.78
2023-04-27T06:00:13.224Z,99773.94
2023-04-27T06:02:42.119Z,99784.78
2023-04-27T06:05:10.544Z,99797.16
2023-04-27T06:07:44.065Z,99799.50
2023-04-27T06:10:12.245Z,99795.13
2023-04-27T06:12:40.326Z,99800.97
2023-04-27T06:15:09.590Z,99799.63
2023-04-27T06:17:39.634Z,99794.06
2023-04-27T06:20:09.626Z,99781.72
2023-04-27T06:22:38.286Z,99768.63
2023-04-27T06:25:07.214Z,99762.34
2023-04-27T06:27:35.935Z,99784.47
2023-04-27T06:30:05.375Z,99782.56
2023-04-27T06:32:36.763Z,99784.13
2023-04-27T06:35:05.540Z,99781.88
2023-04-27T06:37:33.533Z,99777.94
2023-04-27T06:40:01.800Z,99773.81
2023-04-27T06:42:29.895Z,99784.88
2023-04-27T06:45:02.480Z,99771.41
2023-04-27T06:47:34.540Z,99774.44
2023-04-27T06:50:02.455Z,99770.78
2023-04-27T06:52:33.930Z,99769.06
2023-04-27T06:55:01.937Z,99764.81
2023-04-27T06:57:30.238Z,99765.53
2023-04-27T06:59:58.778Z,99776.41
2023-04-27T07:02:29.639Z,99773.81
2023-04-27T07:04:57.583Z,99768.28
2023-04-27T07:07:26.128Z,99775.19
2023-04-27T07:09:54.658Z,99777.66
2023-04-27T07:12:22.631Z,99767.13
2023-04-27T07:14:51.555Z,99775.63
2023-04-27T07:17:19.823Z,99775.47
2023-04-27T07:19:48.371Z,99774.56
2023-04-27T07:22:16.538Z,99779.56
2023-04-27T07:24:44.856Z,99776.38
2023-04-27T07:27:13.840Z,99776.38
2023-04-27T07:29:42.704Z,99780.69
2023-04-27T07:32:11.074Z,99767.09
2023-04-27T07:34:51.866Z,99770.00
2023-04-27T07:37:23.114Z,99765.50
2023-04-27T07:39:54.862Z,99770.94
2023-04-27T07:42:24.126Z,99767.16
2023-04-27T07:44:52.749Z,99768.56
2023-04-27T07:47:21.186Z,99770.50
2023-04-27T07:49:49.322Z,99767.13
2023-04-27T07:52:17.697Z,99767.50
2023-04-27T07:54:46.216Z,99768.78
2023-04-27T07:57:14.778Z,99768.78
2023-04-27T07:59:43.221Z,99764.63
2023-04-27T08:02:19.709Z,99757.97
2023-04-27T08:04:49.948Z,99752.00
2023-04-27T08:07:19.518Z,99756.06
2023-04-27T08:09:47.635Z,99751.66
2023-04-27T08:12:18.161Z,99744.78
2023-04-27T08:14:47.571Z,99743.34
2023-04-27T08:17:15.987Z,99741.41
2023-04-27T08:19:44.376Z,99744.72
2023-04-27T08:22:12.403Z,99739.50
2023-04-27T08:24:41.022Z,99730.66
2023-04-27T08:27:09.769Z,99720.66
2023-04-27T08:29:38.938Z,99731.44
2023-04-27T08:32:07.240Z,99722.03
2023-04-27T08:34:35.536Z,99724.66
2023-04-27T08:37:04.656Z,99714.00
2023-04-27T08:39:33.494Z,99717.63
2023-04-27T08:42:01.341Z,99719.50
2023-04-27T08:44:30.080Z,99717.88
2023-04-27T08:46:58.610Z,99710.91
2023-04-27T08:49:27.509Z,99714.56
2023-04-27T08:51:56.288Z,99708.66
2023-04-27T08:54:25.139Z,99705.25
2023-04-27T08:56:53.656Z,99699.09
2023-04-27T08:59:21.685Z,99690.06
2023-04-27T09:01:50.446Z,99696.19
2023-04-27T09:04:20.549Z,99696.81
2023-04-27T09:06:50.134Z,99693.66
2023-04-27T09:09:25.570Z,99685.88
2023-04-27T09:11:53.634Z,99685.44
2023-04-27T09:14:23.233Z,99687.19
2023-04-27T09:19:41.883Z,99691.56
2023-04-27T09:22:12.095Z,99689.25
2023-04-27T09:24:53.262Z,99681.44
2023-04-27T09:27:22.239Z,99692.38
2023-04-27T09:29:50.702Z,99690.53
2023-04-27T09:32:21.348Z,99688.28
2023-04-27T09:34:49.772Z,99685.59
2023-04-27T09:37:18.373Z,99679.72
2023-04-27T09:39:46.710Z,99671.69
2023-04-27T09:42:17.808Z,99676.56
2023-04-27T09:44:46.236Z,99673.97
2023-04-27T09:47:14.794Z,99684.56
2023-04-27T09:49:43.371Z,99681.03
2023-04-27T09:52:11.382Z,99671.56
2023-04-27T09:54:40.541Z,99675.63
2023-04-27T09:57:47.105Z,99671.59
2023-04-27T10:00:34.980Z,99674.53
2023-04-27T10:03:17.257Z,99662.41
2023-04-27T10:06:07.318Z,99665.09
2023-04-27T10:08:36.895Z,99676.41
2023-04-27T10:11:15.867Z,99676.75
2023-04-27T10:13:55.009Z,99667.41
2023-04-27T10:16:23.735Z,99667.50
2023-04-27T10:18:56.166Z,99668.97
2023-04-27T10:21:24.553Z,99672.78
2023-04-27T10:23:53.428Z,99680.91
2023-04-27T10:26:30.609Z,99669.91
2023-04-27T10:29:08.572Z,99675.63
2023-04-27T10:31:36.911Z,99671.69
2023-04-27T10:34:09.262Z,99670.16
2023-04-27T10:36:39.048Z,99687.41
2023-04-27T10:39:39.641Z,99670.88
2023-04-27T10:42:14.582Z,99677.47
2023-04-27T10:44:43.416Z,99669.88
2023-04-27T10:47:16.601Z,99674.72
2023-04-27T10:49:44.771Z,99678.00
2023-04-27T10:52:13.058Z,99675.50
2023-04-27T10:54:47.751Z,99682.28
2023-04-27T10:57:16.866Z,99674.56
2023-04-27T10:59:52.686Z,99675.44
2023-04-27T11:02:28.752Z,99684.63
2023-04-27T11:04:57.734Z,99670.38
2023-04-27T11:07:28.626Z,99670.00
2023-04-27T11:09:56.502Z,99674.03
2023-04-27T11:12:25.006Z,99671.03
2023-04-27T11:14:58.996Z,99672.00
2023-04-27T11:17:31.325Z,99672.97
2023-04-27T11:19:59.842Z,99676.19
2023-04-27T11:22:28.066Z,99665.06
2023-04-27T11:24:56.985Z,99674.03
2023-04-27T11:27:26.129Z,99675.94
2023-04-27T11:29:54.076Z,99673.81
2023-04-27T11:32:23.464Z,99664.31
2023-04-27T11:34:59.551Z,99670.34
2023-04-27T11:37:28.536Z,99673.91
2023-04-27T11:40:01.283Z,99667.84
2023-04-27T11:42:32.252Z,99671.88
2023-04-27T11:45:00.380Z,99676.75
2023-04-27T11:47:30.498Z,99669.59
2023-04-27T11:50:05.692Z,99668.00
2023-04-27T11:52:36.330Z,99669.25
2023-04-27T11:55:05.623Z,99665.41
2023-04-27T11:57:35.124Z,99658.03
2023-04-27T12:00:11.472Z,99666.59
2023-04-27T12:02:45.236Z,99661.16
2023-04-27T12:05:14.763Z,99661.63
2023-04-27T12:07:43.856Z,99655.69
2023-04-27T12:10:12.260Z,99656.09
2023-04-27T12:12:41.105Z,99649.41
2023-04-27T12:15:10.257Z,99652.53
2023-04-27T12:17:40.628Z,99655.25
2023-04-27T12:20:09.371Z,99655.75
2023-04-27T12:22:38.577Z,99652.88
2023-04-27T12:25:07.057Z,99649.53
2023-04-27T12:27:35.276Z,99642.25
2023-04-27T12:30:04.997Z,99647.09
2023-04-27T12:32:34.055Z,99642.91
2023-04-27T12:35:02.486Z,99649.44
2023-04-27T12:37:31.023Z,99643.19
2023-04-27T12:40:01.305Z,99652.47
2023-04-27T12:42:31.330Z,99644.09
2023-04-27T12:44:59.492Z,99649.06
2023-04-27T12:47:46.441Z,99662.47
2023-04-27T12:50:16.156Z,99663.28
2023-04-27T12:52:44.231Z,99675.81
2023-04-27T12:55:24.896Z,99667.59
2023-04-27T12:58:00.252Z,99661.56
2023-04-27T13:00:30.162Z,99665.69
2023-04-27T13:02:58.817Z,99667.25
2023-04-27T13:05:28.732Z,99661.84
2023-04-27T13:07:58.819Z,99666.88
2023-04-27T13:10:27.115Z,99672.25
2023-04-27T13:12:55.603Z,99675.09
2023-04-27T13:15:23.713Z,99683.34
2023-04-27T13:17:54.844Z,99673.78
2023-04-27T13:20:23.804Z,99675.97
2023-04-27T13:22:53.024Z,99675.34
2023-04-27T13:25:24.248Z,99688.75
2023-04-27T13:27:52.425Z,99692.19
2023-04-27T13:30:20.522Z,99699.88
2023-04-27T13:32:48.581Z,99698.84
2023-04-27T13:35:16.885Z,99692.00
2023-04-27T13:37:45.090Z,99700.13
2023-04-27T13:40:13.204Z,99706.69
2023-04-27T13:42:41.540Z,99701.72
2023-04-27T13:45:10.256Z,99695.00
2023-04-27T13:47:39.689Z,99702.28
2023-04-27T13:50:10.077Z,99703.16
2023-04-27T13:52:39.172Z,99701.31
2023-04-27T13:55:10.333Z,99710.56
2023-04-27T13:57:38.804Z,99706.81
2023-04-27T14:00:11.820Z,99712.88
2023-04-27T14:02:40.893Z,99714.84
2023-04-27T14:05:09.343Z,99710.28
2023-04-27T14:07:38.047Z,99720.28
2023-04-27T14:10:07.247Z,99714.56
2023-04-27T14:12:36.490Z,99724.53
2023-04-27T14:15:04.976Z,99722.28
2023-04-27T14:17:34.322Z,99727.03
2023-04-27T14:20:07.476Z,99723.19
2023-04-27T14:22:36.513Z,99716.97
2023-04-27T14:25:05.133Z,99732.13
2023-04-27T14:27:35.704Z,99739.56
2023-04-27T14:30:04.297Z,99747.56
2023-04-27T14:32:33.494Z,99745.78
2023-04-27T14:35:01.763Z,99743.47
2023-04-27T14:37:30.279Z,99745.63
2023-04-27T14:39:58.545Z,99750.72
2023-04-27T14:42:26.811Z,99747.34
2023-04-27T14:44:55.023Z,99746.34
2023-04-27T14:47:23.254Z,99756.66
2023-04-27T14:49:51.927Z,99749.72
2023-04-27T14:52:20.277Z,99749.50
2023-04-27T14:54:48.474Z,99755.19
2023-04-27T14:57:18.474Z,99759.84
2023-04-27T14:59:46.829Z,99757.09
2023-04-27T15:02:15.119Z,99765.47
2023-04-27T15:04:43.158Z,99762.28
2023-04-27T15:07:11.467Z,99766.88
2023-04-27T15:09:39.610Z,99763.66
2023-04-27T15:12:08.261Z,99765.47
2023-04-27T15:14:36.416Z,99774.81
2023-04-27T15:17:05.090Z,99780.13
2023-04-27T15:19:33.549Z,99777.25
2023-04-27T15:22:02.151Z,99787.84
2023-04-27T15:24:33.119Z,99789.78
2023-04-27T15:27:01.856Z,99795.34
2023-04-27T15:29:30.212Z,99809.50
2023-04-27T15:31:58.245Z,99801.38
2023-04-27T15:34:26.557Z,99801.03
2023-04-27T15:36:55.284Z,99806.34
2023-04-27T15:39:24.291Z,99820.25
2023-04-27T15:41:52.762Z,99823.94
2023-04-27T15:44:22.183Z,99818.97
2023-04-27T15:46:50.299Z,99826.03
2023-04-27T15:49:18.537Z,99829.50
2023-04-27T15:51:46.625Z,99824.88
2023-04-27T15:54:14.717Z,99816.06
2023-04-27T15:56:42.944Z,99821.50
2023-04-27T15:59:10.807Z,99823.19
2023-04-27T16:01:40.388Z,99833.06
2023-04-27T16:04:09.408Z,99833.53
2023-04-27T16:06:40.140Z,99834.28
2023-04-27T16:09:11.990Z,99834.16
2023-04-27T16:11:40.722Z,99835.13
2023-04-27T16:14:12.383Z,99837.94
2023-04-27T16:16:42.783Z,99836.03
2023-04-27T16:19:13.831Z,99843.66
2023-04-27T16:21:42.108Z,99839.25
2023-04-27T16:24:10.066Z,99845.94
2023-04-27T16:26:38.692Z,99849.03
2023-04-27T16:29:07.478Z,99849.88
2023-04-27T16:31:35.906Z,99855.53
2023-04-27T16:34:04.350Z,99852.34
2023-04-27T16:36:35.182Z,99854.41
2023-04-27T16:39:05.274Z,99858.72
2023-04-27T16:41:33.549Z,99856.28
2023-04-27T16:44:01.378Z,99863.16
2023-04-27T16:46:29.703Z,99867.66
2023-04-27T16:48:57.958Z,99873.88
2023-04-27T16:51:27.133Z,99878.91
2023-04-27T16:53:55.543Z,99881.72
2023-04-27T16:56:34.885Z,99887.75
2023-04-27T16:59:04.628Z,99887.63
2023-04-27T17:01:33.767Z,99899.56
2023-04-27T17:04:03.065Z,99903.69
2023-04-27T17:06:31.912Z,99907.59
2023-04-27T17:09:00.419Z,99912.88
2023-04-27T17:11:30.985Z,99921.22
2023-04-27T17:13:59.258Z,99923.66
2023-04-27T17:16:27.552Z,99933.91
2023-04-27T17:18:56.646Z,99930.00
2023-04-27T17:21:32.220Z,99937.53
2023-04-27T17:24:00.874Z,99941.84
2023-04-27T17:26:53.885Z,99943.91
2023-04-27T17:29:22.527Z,99938.88
2023-04-27T17:31:50.802Z,99940.81
2023-04-27T17:34:18.990Z,99953.63
2023-04-27T17:36:47.113Z,99960.13
2023-04-27T17:39:15.695Z,99964.28
2023-04-27T17:41:44.420Z,99956.53
2023-04-27T17:44:13.265Z,99962.50
2023-04-27T17:46:49.291Z,99956.22
2023-04-27T17:49:18.243Z,99951.19
2023-04-27T17:51:49.653Z,99957.19
2023-04-27T17:54:18.309Z,99964.19
2023-04-27T17:56:46.934Z,99962.94
2023-04-27T17:59:17.745Z,99973.94
2023-04-27T18:01:45.983Z,99967.91
2023-04-27T18:04:14.046Z,99978.22
2023-04-27T18:06:42.308Z,99978.69
2023-04-27T18:09:10.801Z,99976.31
2023-04-27T18:11:39.876Z,99982.53
2023-04-27T18:14:07.867Z,99976.22
2023-04-27T18:16:36.218Z,99976.22
2023-04-27T18:19:07.074Z,99985.88
2023-04-27T18:21:37.729Z,99994.66
2023-04-27T18:24:06.640Z,100006.66
2023-04-27T18:26:37.295Z,100008.97
2023-04-27T18:29:05.717Z,100007.38
2023-04-27T18:31:35.641Z,100003.44
2023-04-27T18:34:06.473Z,100010.84
2023-04-27T18:36:34.712Z,100007.47
2023-04-27T18:39:03.309Z,100001.22
2023-04-27T18:41:32.258Z,99996.94
2023-04-27T18:44:06.887Z,100007.94
2023-04-27T18:46:35.646Z,100008.44
2023-04-27T18:49:03.678Z,99993.81
2023-04-27T18:51:32.464Z,99994.13
2023-04-27T18:54:00.468Z,99991.88
2023-04-27T18:56:28.645Z,99996.63
2023-04-27T18:58:56.877Z,99996.63
2023-04-27T19:01:32.833Z,100000.00
2023-04-27T19:04:01.116Z,99996.94
2023-04-27T19:06:29.428Z,99999.25
2023-04-27T19:08:58.268Z,100008.53
2023-04-27T19:11:27.031Z,100008.88
2023-04-27T19:13:55.117Z,100008.31
2023-04-27T19:16:25.070Z,100007.91
2023-04-27T19:18:53.086Z,100007.41
2023-04-27T19:21:21.381Z,100012.66
2023-04-27T19:23:50.024Z,100015.66
2023-04-27T19:26:20.643Z,100018.69
2023-04-27T19:28:49.104Z,100020.53
2023-04-27T19:31:20.121Z,100018.53
2023-04-27T19:36:23.353Z,100027.75
2023-04-27T19:38:51.801Z,100034.38
2023-04-27T19:41:20.068Z,100029.34
2023-04-27T19:43:49.988Z,100034.59
2023-04-27T19:46:18.624Z,100024.94
2023-04-27T19:48:46.938Z,100034.59
2023-04-27T19:51:15.293Z,100037.31
2023-04-27T19:53:43.362Z,100040.66
2023-04-27T19:56:14.556Z,100039.63
2023-04-27T19:58:42.597Z,100035.41
2023-04-27T20:01:12.951Z,100037.25
2023-04-27T20:03:41.897Z,100043.81
2023-04-27T20:06:10.636Z,100036.47
2023-04-27T20:08:39.202Z,100030.84
2023-04-27T20:11:07.132Z,100014.66
2023-04-27T20:13:36.360Z,100012.03
2023-04-27T20:16:05.396Z,100011.66
2023-04-27T20:18:34.179Z,100005.84
2023-04-27T20:21:03.816Z,100010.31
2023-04-27T20:23:32.321Z,100020.59
2023-04-27T20:26:00.978Z,100021.75
2023-04-27T20:28:30.617Z,100021.03
2023-04-27T20:30:59.038Z,100017.50
2023-04-27T20:33:27.465Z,100016.81
2023-04-27T20:36:03.709Z,100026.91
2023-04-27T20:38:38.449Z,100024.50
2023-04-27T20:41:06.595Z,100028.91
2023-04-27T20:43:34.889Z,100025.38
2023-04-27T20:46:03.039Z,100033.47
2023-04-27T20:48:34.078Z,100028.50
2023-04-27T20:51:02.388Z,100026.97
2023-04-27T20:53:31.439Z,100027.25
2023-04-27T20:55:59.547Z,100018.13
2023-04-27T20:58:27.962Z,100022.69
2023-04-27T21:00:56.111Z,100028.25
2023-04-27T21:03:24.364Z,100034.06
2023-04-27T21:05:52.513Z,100028.66
2023-04-27T21:08:21.298Z,100027.53
2023-04-27T21:10:49.714Z,100020.38
2023-04-27T21:13:20.653Z,100031.19
2023-04-27T21:15:49.049Z,100016.00
2023-04-27T21:18:29.076Z,100011.59
2023-04-27T21:20:59.670Z,100009.56
2023-04-27T21:23:27.919Z,100013.16
2023-04-27T21:25:57.710Z,100019.69
2023-04-27T21:28:27.272Z,100012.44
2023-04-27T21:30:58.669Z,100018.41
2023-04-27T21:33:26.735Z,100013.28
2023-04-27T21:35:55.313Z,100015.44
2023-04-27T21:38:23.590Z,100016.28
2023-04-27T21:40:52.138Z,100017.28
2023-04-27T21:43:20.307Z,100024.38
2023-04-27T21:45:49.493Z,100026.97
2023-04-27T21:48:21.110Z,100031.91
2023-04-27T21:50:51.986Z,100034.16
2023-04-27T21:53:20.487Z,100032.88
2023-04-27T21:55:49.742Z,100021.59
2023-04-27T21:58:17.726Z,100030.09
2023-04-27T22:00:45.982Z,100024.78
2023-04-27T22:03:14.528Z,100023.47
2023-04-27T22:05:43.101Z,100036.72
2023-04-27T22:08:11.415Z,100036.56
2023-04-27T22:10:39.738Z,100037.84
2023-04-27T22:13:18.699Z,100034.16
2023-04-27T22:15:52.338Z,100027.88
2023-04-27T22:18:20.785Z,100033.28
2023-04-27T22:20:49.755Z,100023.06
2023-04-27T22:23:19.884Z,100026.16
2023-04-27T22:25:48.017Z,100026.31
2023-04-27T22:28:16.238Z,100035.16
2023-04-27T22:30:44.772Z,100034.81
2023-04-27T22:33:13.414Z,100035.81
2023-04-27T22:35:41.961Z,100024.53
2023-04-27T22:38:10.442Z,100022.47
2023-04-27T22:40:38.531Z,100021.44
2023-04-27T22:43:06.874Z,100009.50
2023-04-27T22:45:36.147Z,100005.91
2023-04-27T22:48:07.578Z,100020.16
2023-04-27T22:50:36.055Z,100015.88
2023-04-27T22:53:05.196Z,100020.59
2023-04-27T22:55:33.936Z,100017.78
2023-04-27T22:58:05.139Z,100007.53
2023-04-27T23:00:33.908Z,100013.13
2023-04-27T23:03:02.646Z,100004.06
2023-04-27T23:05:31.376Z,99996.13
2023-04-27T23:08:00.214Z,99998.09
2023-04-27T23:10:31.320Z,99998.16
2023-04-27T23:13:02.400Z,99979.09
2023-04-27T23:15:31.593Z,99973.69
2023-04-27T23:18:00.179Z,99979.69
2023-04-27T23:20:29.334Z,99984.56
2023-04-27T23:22:58.268Z,99989.81
2023-04-27T23:25:26.560Z,99999.22
2023-04-27T23:27:54.661Z,99995.94
2023-04-27T23:30:22.900Z,100011.97
2023-04-27T23:32:51.095Z,100011.13
2023-04-27T23:35:19.528Z,100015.06
2023-04-27T23:37:47.877Z,100006.75
2023-04-27T23:40:15.879Z,99999.47
2023-04-27T23:42:44.031Z,99999.47
2023-04-27T23:45:14.687Z,100002.72
2023-04-27T23:47:43.297Z,100016.09
2023-04-27T23:50:11.407Z,100008.28
2023-04-27T23:52:40.106Z,100005.16
2023-04-27T23:55:08.563Z,100007.97
2023-04-27T23:57:36.551Z,100017.66
